Time;durP1;ratioP1;P1;durP2;ratioP2;P2;SDS_P1;SDS_P2;PMS_P1;PMS_P2;Temp;Humidity;BMP_temperature;BMP_pressure;BME280_temperature;BME280_humidity;BME280_pressure;Samples;Min_cycle;Max_cycle;Signal;HPM_P1;HPM_P2
2024/01/30 00:01:42;;;;;;;19.65;14.05;;;;;;;;;;5080124;28;20032;-74
2024/01/30 00:04:08;;;;;;;20.88;14.05;;;;;;;;;;5071819;28;20040;-74
2024/01/30 00:06:34;;;;;;;22.85;14.90;;;;;;;;;;5056093;28;20044;-74
2024/01/30 00:09:00;;;;;;;18.83;14.00;;;;;;;;;;5055051;28;20048;-73
2024/01/30 00:11:28;;;;;;;21.10;14.32;;;;;;;;;;5078609;28;20040;-73
2024/01/30 00:13:56;;;;;;;20.90;14.55;;;;;;;;;;5090769;28;20119;-73
2024/01/30 00:16:25;;;;;;;20.83;14.55;;;6.30;99.90;;;;;;5071472;28;20396;-73
2024/01/30 00:18:51;;;;;;;21.33;14.48;;;;;;;;;;5054816;28;20071;-73
2024/01/30 00:21:17;;;;;;;23.00;15.05;;;;;;;;;;5064723;28;20036;-73
2024/01/30 00:23:43;;;;;;;19.45;14.32;;;;;;;;;;5089988;28;20047;-73
2024/01/30 00:26:11;;;;;;;21.63;14.52;;;;;;;;;;5071046;28;20056;-73
2024/01/30 00:28:38;;;;;;;17.63;13.57;;;;;;;;;;5071541;28;20098;-73
2024/01/30 00:31:05;;;;;;;23.17;14.30;;;;;;;;;;5071118;28;20158;-73
2024/01/30 00:33:31;;;;;;;20.27;14.77;;;;;;;;;;5071271;28;20084;-73
2024/01/30 00:35:57;;;;;;;22.33;14.88;;;;;;;;;;5083864;28;20036;-73
2024/01/30 00:38:23;;;;;;;22.35;14.88;;;;;;;;;;5083643;28;20161;-73
2024/01/30 00:40:49;;;;;;;18.60;13.55;;;;;;;;;;5071458;28;20036;-73
2024/01/30 00:43:16;;;;;;;20.13;14.95;;;;;;;;;;5071529;28;20131;-73
2024/01/30 00:45:44;;;;;;;20.85;15.07;;;6.20;99.90;;;;;;5088489;28;20040;-73
2024/01/30 00:48:10;;;;;;;21.98;15.30;;;;;;;;;;5067625;28;20078;-73
2024/01/30 00:50:36;;;;;;;22.25;15.45;;;;;;;;;;5092575;28;20388;-73
2024/01/30 00:53:02;;;;;;;20.55;14.80;;;;;;;;;;5074555;28;20037;-73
2024/01/30 00:55:28;;;;;;;20.33;15.32;;;;;;;;;;5071392;28;20101;-74
2024/01/30 00:57:54;;;;;;;22.02;14.90;;;;;;;;;;5073315;28;20583;-73
2024/01/30 01:00:20;;;;;;;23.23;14.80;;;7.00;99.90;;;;;;5092804;28;20032;-73
2024/01/30 01:02:46;;;;;;;21.10;14.85;;;;;;;;;;5104855;28;20082;-73
2024/01/30 01:05:13;;;;;;;20.48;15.18;;;;;;;;;;5091012;28;20040;-73
2024/01/30 01:07:40;;;;;;;21.58;14.82;;;;;;;;;;5089292;28;20043;-73
2024/01/30 01:10:06;;;;;;;25.20;14.30;;;;;;;;;;5091492;28;20044;-73
2024/01/30 01:12:32;;;;;;;19.10;14.88;;;;;;;;;;5081822;28;20070;-73
2024/01/30 01:14:58;;;;;;;20.40;14.80;;;;;;;;;;5071088;28;20067;-73
2024/01/30 01:17:24;;;;;;;21.48;15.40;;;;;;;;;;5072048;28;20086;-73
2024/01/30 01:19:50;;;;;;;21.80;14.73;;;;;;;;;;5072664;28;20131;-73
2024/01/30 01:22:18;;;;;;;20.92;14.55;;;;;;;;;;5074018;28;20041;-73
2024/01/30 01:24:44;;;;;;;23.60;15.45;;;;;;;;;;5083156;28;20388;-73
2024/01/30 01:27:10;;;;;;;20.50;14.95;;;;;;;;;;5439348;22;20025;-74
2024/01/30 01:29:36;;;;;;;26.27;14.75;;;;;;;;;;5268246;22;20056;-69
2024/01/30 01:32:02;;;;;;;22.08;14.55;;;;;;;;;;5048090;28;20049;-68
2024/01/30 01:34:28;;;;;;;20.00;14.88;;;;;;;;;;5002512;28;20041;-68
2024/01/30 01:36:55;;;;;;;31.90;15.27;;;;;;;;;;5036205;28;20045;-68
2024/01/30 01:39:21;;;;;;;21.88;14.88;;;;;;;;;;5018290;28;20120;-69
2024/01/30 01:41:47;;;;;;;23.83;15.40;;;;;;;;;;5018444;28;20046;-68
2024/01/30 01:47:24;;;;;;;21.58;14.57;;;;;;;;;;4917951;29;20059;-74
2024/01/30 01:49:51;;;;;;;21.38;15.38;;;;;;;;;;4921168;29;20051;-74
2024/01/30 01:52:17;;;;;;;22.17;15.07;;;;;;;;;;4905344;29;20055;-73
2024/01/30 01:54:43;;;;;;;18.70;13.88;;;;;;;;;;4921071;29;20043;-74
2024/01/30 01:57:10;;;;;;;22.45;14.65;;;;;;;;;;4919224;29;20055;-74
2024/01/30 01:59:36;;;;;;;20.25;13.75;;;;;;;;;;4921305;29;20042;-74
2024/01/30 02:02:03;;;;;;;19.80;14.18;;;6.10;99.90;;;;;;4920932;29;20040;-74
2024/01/30 02:04:29;;;;;;;20.45;15.70;;;;;;;;;;4921012;29;20044;-74
2024/01/30 02:06:55;;;;;;;20.42;14.02;;;;;;;;;;4917392;29;20043;-74
2024/01/30 02:09:21;;;;;;;21.55;14.73;;;;;;;;;;4921131;29;20047;-74
2024/01/30 02:11:47;;;;;;;21.83;15.23;;;;;;;;;;4919125;29;20044;-74
2024/01/30 02:14:13;;;;;;;18.75;14.35;;;;;;;;;;4936638;29;20040;-74
2024/01/30 02:16:39;;;;;;;21.67;14.82;;;;;;;;;;4913995;29;20051;-74
2024/01/30 02:19:07;;;;;;;19.63;14.55;;;;;;;;;;4920210;29;20115;-74
2024/01/30 02:21:33;;;;;;;19.75;14.00;;;;;;;;;;4920173;29;20046;-74
2024/01/30 02:24:01;;;;;;;20.25;14.85;;;6.30;99.90;;;;;;4920274;29;20221;-74
2024/01/30 02:26:27;;;;;;;21.67;14.65;;;;;;;;;;4914176;29;20044;-74
2024/01/30 02:28:53;;;;;;;20.88;15.13;;;;;;;;;;4911969;29;20495;-74
2024/01/30 02:31:19;;;;;;;20.67;14.13;;;;;;;;;;4919657;29;20570;-74
2024/01/30 02:33:45;;;;;;;20.25;14.75;;;;;;;;;;4905765;29;20066;-73
2024/01/30 02:36:11;;;;;;;24.58;14.60;;;;;;;;;;4901605;29;20468;-74
2024/01/30 02:38:37;;;;;;;20.77;15.13;;;;;;;;;;4905180;29;20424;-74
2024/01/30 02:41:03;;;;;;;25.30;15.55;;;;;;;;;;4901649;29;20428;-73
2024/01/30 02:43:29;;;;;;;21.63;14.40;;;;;;;;;;4910919;29;20039;-74
2024/01/30 02:45:55;;;;;;;20.65;14.07;;;;;;;;;;4911848;29;20175;-74
2024/01/30 02:48:21;;;;;;;19.58;14.60;;;;;;;;;;4919667;29;20396;-74
2024/01/30 02:50:47;;;;;;;23.67;14.63;;;;;;;;;;4901489;29;20032;-74
2024/01/30 02:53:13;;;;;;;24.38;14.30;;;;;;;;;;4901253;29;20032;-74
2024/01/30 02:55:39;;;;;;;19.20;14.27;;;;;;;;;;4905153;29;20122;-74
2024/01/30 02:58:05;;;;;;;21.73;14.50;;;;;;;;;;4911688;29;20084;-74
2024/01/30 03:00:31;;;;;;;22.02;13.82;;;;;;;;;;4901086;29;20036;-74
2024/01/30 03:02:58;;;;;;;20.80;14.02;;;;;;;;;;4907155;29;20040;-74
2024/01/30 03:05:24;;;;;;;22.10;14.60;;;;;;;;;;4900995;29;20048;-73
2024/01/30 03:07:50;;;;;;;19.75;14.18;;;;;;;;;;4904229;29;20047;-74
2024/01/30 03:10:16;;;;;;;21.73;14.35;;;;;;;;;;4901307;29;20047;-74
2024/01/30 03:12:42;;;;;;;20.80;14.70;;;;;;;;;;4885654;29;20058;-74
2024/01/30 03:15:09;;;;;;;20.83;14.35;;;5.60;99.90;;;;;;4885487;29;20060;-74
2024/01/30 03:17:36;;;;;;;20.20;14.35;;;;;;;;;;4901093;29;20123;-74
2024/01/30 03:20:03;;;;;;;21.92;14.77;;;;;;;;;;4905547;29;20044;-72
2024/01/30 03:22:29;;;;;;;20.10;14.70;;;;;;;;;;4888357;29;20054;-74
2024/01/30 03:24:55;;;;;;;19.90;14.30;;;;;;;;;;4918983;29;20048;-74
2024/01/30 03:27:22;;;;;;;19.60;14.02;;;;;;;;;;4903685;29;20509;-74
2024/01/30 03:29:48;;;;;;;20.35;14.20;;;;;;;;;;4903612;29;20131;-74
2024/01/30 03:32:14;;;;;;;18.20;13.27;;;;;;;;;;4900545;29;20052;-74
2024/01/30 03:34:40;;;;;;;21.90;14.40;;;;;;;;;;4902915;29;20040;-74
2024/01/30 03:37:06;;;;;;;18.40;13.82;;;;;;;;;;4900944;29;20044;-74
2024/01/30 03:39:32;;;;;;;16.33;13.52;;;;;;;;;;4902500;29;20176;-74
2024/01/30 03:41:58;;;;;;;22.75;14.43;;;;;;;;;;4901471;29;20099;-74
2024/01/30 03:44:24;;;;;;;21.10;13.55;;;;;;;;;;4904614;29;20043;-74
2024/01/30 03:46:50;;;;;;;19.65;14.05;;;;;;;;;;4904582;29;20056;-74
2024/01/30 03:49:16;;;;;;;20.73;13.80;;;;;;;;;;4901265;29;20044;-73
2024/01/30 03:51:43;;;;;;;18.98;14.07;;;;;;;;;;4902175;29;20036;-74
2024/01/30 03:54:09;;;;;;;20.83;14.00;;;;;;;;;;4894983;29;20124;-74
2024/01/30 03:56:35;;;;;;;21.35;14.05;;;;;;;;;;4914155;29;20126;-74
2024/01/30 03:59:02;;;;;;;20.58;14.73;;;;;;;;;;4909870;29;20071;-74
2024/01/30 04:01:28;;;;;;;21.92;13.48;;;;;;;;;;4913274;29;20392;-74
2024/01/30 04:03:55;;;;;;;23.75;13.70;;;;;;;;;;4906649;29;20083;-74
2024/01/30 04:06:21;;;;;;;18.58;13.70;;;;;;;;;;4917993;29;20036;-74
2024/01/30 04:08:47;;;;;;;21.13;13.30;;;;;;;;;;4903904;29;20036;-74
2024/01/30 04:11:13;;;;;;;20.65;13.50;;;;;;;;;;4911230;29;20135;-74
2024/01/30 04:13:39;;;;;;;20.55;13.15;;;;;;;;;;4899782;29;20036;-74
2024/01/30 04:16:05;;;;;;;24.85;14.43;;;;;;;;;;4910154;29;20048;-74
2024/01/30 04:18:32;;;;;;;21.17;13.75;;;;;;;;;;4918989;29;20391;-74
2024/01/30 04:20:58;;;;;;;18.85;13.80;;;;;;;;;;4918976;29;20455;-74
2024/01/30 04:23:24;;;;;;;21.20;13.50;;;;;;;;;;4918951;29;20354;-74
2024/01/30 04:25:50;;;;;;;18.90;13.50;;;;;;;;;;4918699;29;20051;-74
2024/01/30 04:28:16;;;;;;;21.70;13.90;;;;;;;;;;4907966;29;20044;-74
2024/01/30 04:30:42;;;;;;;20.33;13.65;;;;;;;;;;4899670;29;20095;-74
2024/01/30 04:33:08;;;;;;;22.45;13.77;;;;;;;;;;4899596;29;20396;-74
2024/01/30 04:35:34;;;;;;;21.20;13.52;;;;;;;;;;4899556;29;20040;-74
2024/01/30 04:38:00;;;;;;;17.63;12.88;;;;;;;;;;4899690;29;20063;-74
2024/01/30 04:40:26;;;;;;;17.00;12.95;;;;;;;;;;4899613;29;20038;-74
2024/01/30 04:42:52;;;;;;;19.80;13.88;;;;;;;;;;4884169;29;20044;-74
2024/01/30 04:45:18;;;;;;;18.98;13.40;;;;;;;;;;4899381;29;20087;-74
2024/01/30 04:47:46;;;;;;;19.35;13.32;;;;;;;;;;4899372;29;20068;-74
2024/01/30 04:50:12;;;;;;;19.92;13.40;;;;;;;;;;4899765;29;20138;-74
2024/01/30 04:52:38;;;;;;;20.25;13.40;;;;;;;;;;4899665;29;20100;-74
2024/01/30 04:55:04;;;;;;;19.77;13.40;;;;;;;;;;4905790;29;20050;-74
2024/01/30 04:57:30;;;;;;;22.15;13.27;;;;;;;;;;4920602;29;20055;-74
2024/01/30 04:59:57;;;;;;;19.73;13.07;;;;;;;;;;4915064;29;20036;-74
2024/01/30 05:02:23;;;;;;;17.00;12.68;;;;;;;;;;4905758;29;20046;-74
2024/01/30 05:04:49;;;;;;;18.70;12.55;;;;;;;;;;4902940;29;20090;-72
2024/01/30 05:07:15;;;;;;;18.75;13.30;;;;;;;;;;4904185;29;20471;-75
2024/01/30 05:09:41;;;;;;;22.75;13.43;;;;;;;;;;4919101;29;20039;-74
2024/01/30 05:12:07;;;;;;;19.25;13.38;;;;;;;;;;4903181;29;20093;-74
2024/01/30 05:14:33;;;;;;;19.00;12.52;;;;;;;;;;4887567;29;20093;-74
2024/01/30 05:16:59;;;;;;;20.10;12.80;;;;;;;;;;4887902;29;20048;-74
2024/01/30 05:19:25;;;;;;;19.58;12.75;;;;;;;;;;4887477;29;20032;-74
2024/01/30 05:21:52;;;;;;;18.10;13.13;;;;;;;;;;4911128;29;20206;-74
2024/01/30 05:24:18;;;;;;;17.92;13.10;;;;;;;;;;4920188;29;20117;-74
2024/01/30 05:26:44;;;;;;;21.58;13.35;;;;;;;;;;4915723;29;20083;-74
2024/01/30 05:29:10;;;;;;;18.77;12.45;;;;;;;;;;4918831;29;20047;-74
2024/01/30 05:31:36;;;;;;;16.63;12.10;;;;;;;;;;4916596;29;20099;-74
2024/01/30 05:34:02;;;;;;;18.38;12.68;;;;;;;;;;4919767;29;20036;-74
2024/01/30 05:36:28;;;;;;;18.45;12.10;;;;;;;;;;4908238;29;20128;-74
2024/01/30 05:38:54;;;;;;;17.70;12.93;;;;;;;;;;4918405;29;20039;-74
2024/01/30 05:41:21;;;;;;;18.73;12.70;;;;;;;;;;4907186;29;20054;-74
2024/01/30 05:43:47;;;;;;;17.48;12.73;;;;;;;;;;4903708;29;20036;-74
2024/01/30 05:46:13;;;;;;;18.40;12.60;;;;;;;;;;4906695;29;20055;-74
2024/01/30 05:48:39;;;;;;;18.55;11.88;;;;;;;;;;4919440;29;20479;-74
2024/01/30 05:51:07;;;;;;;15.38;12.07;;;;;;;;;;4887526;29;20040;-74
2024/01/30 05:53:33;;;;;;;14.45;11.07;;;;;;;;;;4902212;29;20056;-74
2024/01/30 05:56:00;;;;;;;18.08;12.10;;;;;;;;;;4888036;29;20112;-74
2024/01/30 05:58:26;;;;;;;18.65;12.73;;;;;;;;;;4912294;29;20097;-74
2024/01/30 06:00:52;;;;;;;20.13;12.35;;;;;;;;;;4905123;29;20047;-74
2024/01/30 06:03:18;;;;;;;17.65;12.20;;;;;;;;;;4916046;29;20040;-72
2024/01/30 06:05:44;;;;;;;20.50;12.18;;;;;;;;;;4901941;29;20071;-74
2024/01/30 06:08:10;;;;;;;15.88;11.15;;;;;;;;;;4887088;29;20369;-74
2024/01/30 06:10:36;;;;;;;18.27;11.95;;;;;;;;;;4903399;29;20036;-74
2024/01/30 06:13:03;;;;;;;17.35;11.52;;;;;;;;;;4910601;29;20164;-74
2024/01/30 06:15:32;;;;;;;18.00;11.90;;;;;;;;;;4912724;29;20032;-74
2024/01/30 06:17:58;;;;;;;16.80;11.45;;;;;;;;;;4910257;29;20076;-74
2024/01/30 06:20:25;;;;;;;18.83;12.02;;;;;;;;;;4912878;29;20051;-73
2024/01/30 06:22:51;;;;;;;16.38;11.55;;;;;;;;;;4902854;29;20586;-74
2024/01/30 06:25:17;;;;;;;16.83;11.18;;;;;;;;;;4910042;29;20072;-74
2024/01/30 06:27:44;;;;;;;16.73;11.50;;;;;;;;;;4916285;29;20085;-74
2024/01/30 06:30:10;;;;;;;17.90;12.00;;;6.90;99.90;;;;;;4907155;29;20135;-73
2024/01/30 06:32:36;;;;;;;18.55;11.30;;;;;;;;;;4911623;29;20055;-74
2024/01/30 06:35:02;;;;;;;14.70;11.30;;;;;;;;;;4905950;29;20099;-74
2024/01/30 06:37:28;;;;;;;15.90;11.30;;;;;;;;;;4887093;29;20076;-74
2024/01/30 06:39:54;;;;;;;15.52;11.38;;;;;;;;;;4914899;29;20075;-71
2024/01/30 06:42:24;;;;;;;17.45;11.23;;;;;;;;;;4926728;29;20038;-73
2024/01/30 06:44:50;;;;;;;18.08;12.25;;;;;;;;;;4920371;29;20051;-74
2024/01/30 06:47:16;;;;;;;17.17;12.18;;;;;;;;;;4906021;29;20071;-74
2024/01/30 06:49:43;;;;;;;18.70;12.02;;;;;;;;;;4901245;29;20055;-73
2024/01/30 06:52:09;;;;;;;16.27;12.13;;;;;;;;;;4904211;29;20044;-73
2024/01/30 06:54:36;;;;;;;18.95;12.45;;;;;;;;;;4907054;29;20040;-73
2024/01/30 06:57:02;;;;;;;16.38;11.82;;;;;;;;;;4902636;29;20052;-73
2024/01/30 06:59:29;;;;;;;16.10;11.45;;;;;;;;;;4902628;29;20044;-73
2024/01/30 07:01:55;;;;;;;19.60;12.15;;;;;;;;;;4908909;29;20392;-73
2024/01/30 07:04:21;;;;;;;19.55;11.80;;;;;;;;;;4908334;29;20047;-74
2024/01/30 07:06:47;;;;;;;15.60;11.85;;;;;;;;;;4904843;29;20054;-74
2024/01/30 07:09:13;;;;;;;17.95;11.95;;;;;;;;;;4900620;29;20400;-74
2024/01/30 07:11:39;;;;;;;15.35;10.50;;;;;;;;;;4903917;29;20083;-74
2024/01/30 07:14:05;;;;;;;17.35;11.70;;;;;;;;;;4908781;29;20040;-73
2024/01/30 07:16:31;;;;;;;20.25;12.52;;;;;;;;;;4905844;29;20524;-74
2024/01/30 07:18:57;;;;;;;17.60;11.55;;;;;;;;;;4900664;29;20036;-73
2024/01/30 07:21:28;;;;;;;15.93;11.75;;;;;;;;;;4884109;29;20040;-73
2024/01/30 07:23:57;;;;;;;18.38;11.60;;;;;;;;;;4909954;29;20040;-73
2024/01/30 07:26:23;;;;;;;16.98;12.00;;;;;;;;;;4899678;29;20044;-73
2024/01/30 07:28:50;;;;;;;19.33;13.05;;;;;;;;;;4901481;29;20123;-73
2024/01/30 07:31:16;;;;;;;19.92;12.32;;;;;;;;;;4906524;29;20040;-75
2024/01/30 07:33:42;;;;;;;17.00;11.65;;;;;;;;;;4901864;29;20103;-73
2024/01/30 07:36:08;;;;;;;18.75;11.65;;;;;;;;;;4912837;29;20062;-72
2024/01/30 07:38:34;;;;;;;22.17;11.13;;;;;;;;;;4919150;29;20467;-72
2024/01/30 07:41:01;;;;;;;17.80;11.65;;;;;;;;;;4917598;29;20159;-73
2024/01/30 07:43:27;;;;;;;22.50;11.13;;;;;;;;;;4900387;29;20044;-73
2024/01/30 07:45:53;;;;;;;17.00;11.05;;;;;;;;;;4896984;29;20074;-73
2024/01/30 07:48:19;;;;;;;16.15;11.88;;;;;;;;;;4897259;29;20085;-73
2024/01/30 07:50:45;;;;;;;16.48;11.35;;;;;;;;;;4896999;29;20044;-73
2024/01/30 07:53:11;;;;;;;17.40;12.25;;;;;;;;;;4896930;29;20043;-72
2024/01/30 07:55:37;;;;;;;17.73;12.00;;;;;;;;;;4896904;29;20119;-73
2024/01/30 07:58:04;;;;;;;16.33;11.13;;;;;;;;;;4896891;29;20055;-73
2024/01/30 08:00:30;;;;;;;14.85;11.45;;;;;;;;;;4897234;29;20044;-73
2024/01/30 08:02:56;;;;;;;18.02;11.35;;;;;;;;;;4896889;29;20078;-73
2024/01/30 08:05:23;;;;;;;16.60;10.60;;;;;;;;;;4896823;29;20055;-73
2024/01/30 08:07:49;;;;;;;16.60;11.50;;;;;;;;;;4896173;29;20049;-73
2024/01/30 08:10:18;;;;;;;16.90;11.10;;;;;;;;;;4896699;29;20136;-73
2024/01/30 08:12:44;;;;;;;16.88;11.25;;;;;;;;;;4897100;29;20116;-73
2024/01/30 08:15:10;;;;;;;19.83;11.73;;;;;;;;;;4881176;29;20109;-73
2024/01/30 08:17:36;;;;;;;19.67;12.15;;;;;;;;;;4896596;29;20561;-73
2024/01/30 08:20:04;;;;;;;17.90;11.60;;;;;;;;;;4896580;29;20497;-72
2024/01/30 08:22:30;;;;;;;18.20;11.38;;;;;;;;;;4896845;29;20450;-73
2024/01/30 08:24:56;;;;;;;18.50;11.52;;;;;;;;;;4896543;29;20136;-73
2024/01/30 08:27:22;;;;;;;18.08;12.02;;;;;;;;;;4896686;29;20080;-73
2024/01/30 08:29:50;;;;;;;17.15;10.70;;;;;;;;;;4896379;29;20147;-73
2024/01/30 08:32:16;;;;;;;20.60;11.45;;;;;;;;;;4896562;29;20091;-73
2024/01/30 08:34:42;;;;;;;21.00;11.35;;;;;;;;;;4880681;29;20045;-73
2024/01/30 08:37:08;;;;;;;18.58;11.30;;;;;;;;;;4881167;29;20084;-72
2024/01/30 08:39:34;;;;;;;18.08;11.85;;;;;;;;;;4896372;29;20051;-73
2024/01/30 08:42:00;;;;;;;18.80;11.30;;;;;;;;;;4896292;29;20044;-73
2024/01/30 08:44:29;;;;;;;23.35;11.48;;;;;;;;;;4895923;29;20131;-73
2024/01/30 08:46:55;;;;;;;21.95;11.73;;;;;;;;;;4895858;29;20128;-73
2024/01/30 08:49:21;;;;;;;19.83;11.52;;;;;;;;;;4896805;29;20044;-72
2024/01/30 08:51:47;;;;;;;17.60;11.23;;;;;;;;;;4896668;29;20075;-72
2024/01/30 08:54:13;;;;;;;19.20;11.25;;;;;;;;;;4896357;29;20509;-73
2024/01/30 08:56:40;;;;;;;16.98;11.20;;;;;;;;;;4896691;29;20378;-72
2024/01/30 08:59:06;;;;;;;18.58;11.48;;;;;;;;;;4896305;29;20465;-73
2024/01/30 09:01:32;;;;;;;16.35;11.63;;;;;;;;;;4896594;29;20181;-73
2024/01/30 09:03:58;;;;;;;19.15;10.85;;;;;;;;;;4896249;29;20053;-73
2024/01/30 09:06:26;;;;;;;22.80;11.63;;;;;;;;;;4896232;29;20505;-73
2024/01/30 09:08:52;;;;;;;19.25;10.55;;;;;;;;;;4896113;29;20060;-73
2024/01/30 09:11:18;;;;;;;19.95;10.45;;;;;;;;;;4896086;29;20055;-73
2024/01/30 09:13:45;;;;;;;17.15;10.75;;;;;;;;;;4911774;29;20044;-73
2024/01/30 09:16:11;;;;;;;21.35;11.43;;;;;;;;;;4896396;29;20132;-73
2024/01/30 09:18:37;;;;;;;21.63;12.35;;;;;;;;;;4896002;29;20123;-73
2024/01/30 09:21:03;;;;;;;21.90;11.65;;;;;;;;;;4896126;29;20037;-73
2024/01/30 09:23:29;;;;;;;20.02;10.93;;;;;;;;;;4896088;29;20047;-73
2024/01/30 09:25:56;;;;;;;17.85;11.18;;;;;;;;;;4896271;29;20037;-73
2024/01/30 09:28:22;;;;;;;17.08;10.85;;;;;;;;;;4896061;29;20052;-73
2024/01/30 09:30:48;;;;;;;21.08;11.77;;;;;;;;;;4880375;29;20584;-73
2024/01/30 09:33:14;;;;;;;21.38;11.18;;;;;;;;;;4896103;29;20044;-73
2024/01/30 09:35:40;;;;;;;18.55;11.15;;;;;;;;;;4895964;29;20174;-73
2024/01/30 09:38:06;;;;;;;20.15;11.55;;;;;;;;;;4895962;29;20083;-73
2024/01/30 09:40:32;;;;;;;18.75;11.52;;;;;;;;;;4896000;29;20045;-73
2024/01/30 09:43:02;;;;;;;21.58;12.38;;;;;;;;;;4899385;29;20076;-73
2024/01/30 09:45:28;;;;;;;18.33;11.45;;;;;;;;;;4898971;29;20059;-73
2024/01/30 09:47:54;;;;;;;16.33;11.27;;;;;;;;;;4899270;29;20064;-73
2024/01/30 09:50:20;;;;;;;18.05;11.45;;;;;;;;;;4899336;29;20048;-73
2024/01/30 09:52:47;;;;;;;17.08;10.60;;;;;;;;;;4899211;29;20048;-73
2024/01/30 09:55:13;;;;;;;16.25;10.45;;;;;;;;;;4899171;29;20151;-73
2024/01/30 09:57:39;;;;;;;21.08;10.52;;;;;;;;;;4899418;29;20048;-73
2024/01/30 10:00:09;;;;;;;18.70;9.63;;;;;;;;;;4898987;29;20504;-73
2024/01/30 10:02:35;;;;;;;16.15;10.23;;;;;;;;;;4899012;29;20084;-73
2024/01/30 10:05:02;;;;;;;16.13;10.15;;;;;;;;;;4898988;29;20044;-73
2024/01/30 10:07:28;;;;;;;19.90;10.10;;;;;;;;;;4899229;29;20398;-73
2024/01/30 10:09:57;;;;;;;23.08;9.65;;;;;;;;;;4898831;29;20084;-73
2024/01/30 10:12:23;;;;;;;21.83;9.98;;;;;;;;;;4898904;29;20052;-74
2024/01/30 10:14:49;;;;;;;18.90;9.40;;;;;;;;;;4898745;29;20446;-73
2024/01/30 10:17:16;;;;;;;18.20;9.55;;;;;;;;;;4898996;29;20450;-73
2024/01/30 10:19:42;;;;;;;17.85;9.48;;;;;;;;;;4898992;29;20047;-73
2024/01/30 10:22:08;;;;;;;16.63;9.27;;;;;;;;;;4898965;29;20370;-73
2024/01/30 10:24:34;;;;;;;18.73;8.82;;;;;;;;;;4898846;29;20053;-73
2024/01/30 10:27:00;;;;;;;15.23;8.10;;;;;;;;;;4898836;29;20056;-73
2024/01/30 10:29:28;;;;;;;18.65;8.18;;;;;;;;;;4898443;29;20049;-73
2024/01/30 10:32:01;;;;;;;16.83;6.88;;;9.20;99.90;;;;;;4898500;29;20044;-73
2024/01/30 10:34:27;;;;;;;13.70;6.53;;;;;;;;;;4898403;29;20076;-73
2024/01/30 10:37:06;;;;;;;16.25;6.28;;;;;;;;;;4898585;29;20048;-73
2024/01/30 10:39:32;;;;;;;12.73;5.57;;;;;;;;;;4898384;29;20053;-73
2024/01/30 10:42:01;;;;;;;13.63;5.65;;;;;;;;;;4898527;29;20476;-73
2024/01/30 10:44:28;;;;;;;12.10;5.65;;;;;;;;;;4898305;29;20048;-73
2024/01/30 10:46:59;;;;;;;14.35;4.85;;;;;;;;;;4898044;29;20067;-73
2024/01/30 10:49:25;;;;;;;12.48;4.78;;;;;;;;;;4898570;29;20374;-73
2024/01/30 10:51:52;;;;;;;15.00;5.00;;;9.00;99.90;;;;;;4898066;29;20060;-73
2024/01/30 10:54:18;;;;;;;14.02;4.53;;;;;;;;;;4897356;29;20126;-73
2024/01/30 10:56:45;;;;;;;13.93;4.75;;;;;;;;;;4898069;29;20055;-73
2024/01/30 10:59:13;;;;;;;7.97;3.42;;;;;;;;;;4898202;29;20048;-73
2024/01/30 11:01:39;;;;;;;9.45;3.00;;;;;;;;;;4898490;29;20067;-73
2024/01/30 11:04:06;;;;;;;9.00;2.67;;;;;;;;;;4898342;29;20063;-73
2024/01/30 11:06:32;;;;;;;6.35;2.67;;;;;;;;;;4898047;29;20458;-73
2024/01/30 11:09:09;;;;;;;8.98;2.55;;;;;;;;;;4898157;29;20044;-73
2024/01/30 11:11:54;;;;;;;7.82;2.60;;;;;;;;;;4897863;29;20501;-73
2024/01/30 11:14:28;;;;;;;7.22;2.50;;;9.00;99.90;;;;;;4897723;29;20512;-73
2024/01/30 11:16:58;;;;;;;8.60;2.55;;;;;;;;;;4897707;29;20512;-73
2024/01/30 11:19:25;;;;;;;8.55;2.00;;;;;;;;;;4897780;29;20082;-73
2024/01/30 11:21:53;;;;;;;7.03;3.38;;;;;;;;;;4897990;29;20080;-73
2024/01/30 11:24:21;;;;;;;10.27;2.30;;;;;;;;;;4897671;29;20048;-73
2024/01/30 11:26:50;;;;;;;5.88;2.45;;;9.00;99.90;;;;;;4897950;29;20135;-73
2024/01/30 11:29:17;;;;;;;7.80;2.30;;;;;;;;;;4897891;29;20346;-73
2024/01/30 11:31:56;;;;;;;6.85;2.45;;;;;;;;;;4897741;29;20044;-73
2024/01/30 11:34:23;;;;;;;6.43;2.08;;;;;;;;;;4908567;29;20043;-74
2024/01/30 11:36:54;;;;;;;7.88;2.28;;;;;;;;;;4904905;29;20056;-73
2024/01/30 11:39:22;;;;;;;9.90;2.70;;;;;;;;;;4899826;29;20100;-73
2024/01/30 11:41:48;;;;;;;6.35;2.22;;;;;;;;;;4899625;29;20793;-74
2024/01/30 11:44:15;;;;;;;6.05;2.28;;;9.00;99.90;;;;;;4906209;29;20127;-74
2024/01/30 11:46:41;;;;;;;5.50;2.40;;;;;;;;;;4895477;29;20107;-74
2024/01/30 11:49:07;;;;;;;9.85;2.42;;;;;;;;;;4912512;29;20450;-73
2024/01/30 11:51:33;;;;;;;5.63;2.10;;;;;;;;;;4881731;29;20493;-74
2024/01/30 11:53:59;;;;;;;6.05;2.15;;;;;;;;;;4898559;29;20048;-74
2024/01/30 11:56:26;;;;;;;7.93;2.60;;;;;;;;;;4896977;29;20044;-74
2024/01/30 11:58:53;;;;;;;9.27;2.78;;;;;;;;;;4897275;29;20445;-74
2024/01/30 12:01:19;;;;;;;6.45;2.17;;;;;;;;;;4914570;29;20071;-74
2024/01/30 12:03:52;;;;;;;8.63;2.45;;;;;;;;;;4915494;29;20044;-74
2024/01/30 12:06:18;;;;;;;9.43;2.67;;;;;;;;;;4910492;29;20040;-74
2024/01/30 12:08:57;;;;;;;8.98;2.38;;;8.70;99.90;;;;;;4897109;29;20048;-74
2024/01/30 12:11:24;;;;;;;6.95;1.92;;;;;;;;;;4881906;29;20040;-74
2024/01/30 12:13:50;;;;;;;5.72;2.00;;;;;;;;;;4896996;29;20040;-74
2024/01/30 12:16:16;;;;;;;7.40;2.17;;;;;;;;;;4880965;29;20501;-73
2024/01/30 12:18:42;;;;;;;5.80;1.92;;;;;;;;;;4893706;29;20048;-74
2024/01/30 12:21:08;;;;;;;5.75;1.90;;;;;;;;;;4915273;29;20077;-74
2024/01/30 12:23:35;;;;;;;9.40;2.25;;;;;;;;;;4912355;29;20047;-74
2024/01/30 12:26:03;;;;;;;7.68;2.17;;;;;;;;;;4912275;29;20040;-74
2024/01/30 12:28:29;;;;;;;7.22;1.92;;;;;;;;;;4898483;29;20040;-74
2024/01/30 12:31:03;;;;;;;8.25;2.30;;;8.90;99.90;;;;;;4896885;29;20099;-74
2024/01/30 12:33:29;;;;;;;5.30;1.67;;;;;;;;;;4896620;29;20076;-73
2024/01/30 12:35:55;;;;;;;5.68;1.73;;;;;;;;;;4881031;29;20123;-73
2024/01/30 12:38:21;;;;;;;8.25;2.38;;;;;;;;;;4897556;29;20092;-73
2024/01/30 12:40:47;;;;;;;9.18;2.60;;;;;;;;;;4896388;29;20048;-73
2024/01/30 12:43:17;;;;;;;5.07;1.70;;;;;;;;;;4899080;29;20036;-74
2024/01/30 12:45:43;;;;;;;4.65;1.67;;;;;;;;;;4896092;29;20056;-73
2024/01/30 12:48:09;;;;;;;5.95;2.10;;;;;;;;;;4898271;29;20053;-74
2024/01/30 12:50:36;;;;;;;9.35;2.30;;;;;;;;;;4902691;29;20071;-73
2024/01/30 12:53:02;;;;;;;6.95;2.03;;;;;;;;;;4897206;29;20529;-74
2024/01/30 12:55:28;;;;;;;5.70;2.20;;;;;;;;;;4896404;29;20045;-74
2024/01/30 12:57:55;;;;;;;9.20;1.90;;;8.70;99.90;;;;;;4897847;29;20051;-74
2024/01/30 13:00:22;;;;;;;8.45;2.92;;;;;;;;;;4896860;29;20059;-74
2024/01/30 13:02:48;;;;;;;5.00;1.95;;;;;;;;;;4905248;29;20040;-74
2024/01/30 13:05:14;;;;;;;9.07;2.83;;;;;;;;;;4900931;29;20041;-74
2024/01/30 13:07:40;;;;;;;6.82;2.47;;;;;;;;;;4887866;29;20123;-74
2024/01/30 13:10:06;;;;;;;4.97;1.88;;;;;;;;;;4903140;29;20434;-73
2024/01/30 13:12:33;;;;;;;6.18;2.75;;;;;;;;;;4896577;29;20131;-74
2024/01/30 13:15:04;;;;;;;5.15;1.98;;;;;;;;;;4896044;29;20506;-73
2024/01/30 13:17:30;;;;;;;4.57;1.70;;;;;;;;;;4899280;29;20048;-73
2024/01/30 13:19:56;;;;;;;9.20;1.73;;;;;;;;;;4899671;29;20124;-73
2024/01/30 13:22:22;;;;;;;3.63;1.63;;;;;;;;;;4899739;29;20056;-73
2024/01/30 13:24:49;;;;;;;3.67;1.60;;;;;;;;;;4884203;29;20036;-73
2024/01/30 13:27:15;;;;;;;4.32;1.70;;;;;;;;;;4899735;29;20045;-73
2024/01/30 13:29:41;;;;;;;4.15;1.55;;;;;;;;;;4899947;29;20036;-74
2024/01/30 13:32:07;;;;;;;3.95;1.73;;;;;;;;;;4900065;29;20055;-74
2024/01/30 13:34:33;;;;;;;3.80;1.80;;;;;;;;;;4908635;29;20042;-74
2024/01/30 13:36:59;;;;;;;4.55;1.88;;;;;;;;;;4910948;29;20108;-74
2024/01/30 13:39:25;;;;;;;5.78;2.17;;;;;;;;;;4902771;29;20064;-75
2024/01/30 13:41:51;;;;;;;9.75;2.33;;;;;;;;;;4902727;29;20117;-74
2024/01/30 13:44:18;;;;;;;4.00;2.10;;;;;;;;;;4902436;29;20045;-74
2024/01/30 13:46:44;;;;;;;8.20;2.50;;;;;;;;;;4898882;29;20136;-74
2024/01/30 13:49:11;;;;;;;8.57;2.50;;;;;;;;;;4902866;29;20052;-74
2024/01/30 13:51:37;;;;;;;2.83;2.50;;;;;;;;;;4892583;29;20045;-74
2024/01/30 13:54:03;;;;;;;7.20;2.15;;;;;;;;;;4901036;29;20075;-75
2024/01/30 13:56:30;;;;;;;4.72;1.88;;;;;;;;;;4905783;29;20041;-74
2024/01/30 13:58:56;;;;;;;4.50;2.00;;;;;;;;;;4898859;29;20371;-74
2024/01/30 14:01:22;;;;;;;7.68;2.33;;;;;;;;;;4888474;29;20156;-74
2024/01/30 14:03:48;;;;;;;5.38;2.00;;;;;;;;;;4899318;29;20044;-74
2024/01/30 14:06:15;;;;;;;5.03;1.95;;;;;;;;;;4902541;29;20044;-75
2024/01/30 14:08:41;;;;;;;3.55;2.08;;;;;;;;;;4917825;29;20040;-75
2024/01/30 14:11:07;;;;;;;2.67;1.88;;;;;;;;;;4916283;29;20040;-74
2024/01/30 14:13:33;;;;;;;5.05;2.03;;;;;;;;;;4896179;29;20501;-74
2024/01/30 14:15:59;;;;;;;4.38;2.00;;;;;;;;;;4898655;29;20119;-75
2024/01/30 14:18:26;;;;;;;5.75;2.53;;;;;;;;;;4898851;29;20052;-74